createdAt,value
2023-04-14T00:00:47.906Z,3.89
2023-04-14T00:03:16.881Z,3.87
2023-04-14T00:05:44.891Z,3.85
2023-04-14T00:08:12.868Z,3.87
2023-04-14T00:10:40.706Z,3.89
2023-04-14T00:13:09.846Z,3.88
2023-04-14T00:15:37.683Z,3.86
2023-04-14T00:18:08.575Z,3.89
2023-04-14T00:20:36.463Z,3.82
2023-04-14T00:23:04.271Z,3.82
2023-04-14T00:25:32.109Z,3.80
2023-04-14T00:27:59.834Z,3.78
2023-04-14T00:30:30.606Z,3.80
2023-04-14T00:32:58.447Z,3.75
2023-04-14T00:35:26.349Z,3.74
2023-04-14T00:37:56.578Z,3.73
2023-04-14T00:40:24.511Z,3.74
2023-04-14T00:42:52.336Z,3.72
2023-04-14T00:45:20.420Z,3.74
2023-04-14T00:47:50.872Z,3.71
2023-04-14T00:50:20.901Z,3.76
2023-04-14T00:52:52.663Z,3.72
2023-04-14T00:55:21.434Z,3.69
2023-04-14T00:57:50.475Z,3.61
2023-04-14T01:00:19.201Z,3.65
2023-04-14T01:02:47.225Z,3.65
2023-04-14T01:05:16.901Z,3.65
2023-04-14T01:07:45.541Z,3.64
2023-04-14T01:10:13.540Z,3.67
2023-04-14T01:12:58.704Z,3.75
2023-04-14T01:15:35.609Z,3.70
2023-04-14T01:18:10.470Z,3.67
2023-04-14T01:20:43.569Z,3.57
2023-04-14T01:23:16.692Z,3.60
2023-04-14T01:26:19.325Z,3.56
2023-04-14T01:29:10.441Z,3.61
2023-04-14T01:31:45.670Z,3.59
2023-04-14T01:34:20.716Z,3.48
2023-04-14T01:36:56.660Z,3.55
2023-04-14T01:39:27.655Z,3.51
2023-04-14T01:41:58.213Z,3.50
2023-04-14T01:44:27.993Z,3.36
2023-04-14T01:47:03.397Z,3.54
2023-04-14T01:49:34.349Z,3.52
2023-04-14T01:52:05.524Z,3.58
2023-04-14T01:54:34.432Z,3.52
2023-04-14T01:57:04.147Z,3.55
2023-04-14T01:59:34.652Z,3.61
2023-04-14T02:02:06.309Z,3.55
2023-04-14T02:04:36.847Z,3.56
2023-04-14T02:07:07.413Z,3.51
2023-04-14T02:09:36.325Z,3.49
2023-04-14T02:12:05.472Z,3.40
2023-04-14T02:14:34.854Z,3.31
2023-04-14T02:17:05.918Z,3.41
2023-04-14T02:19:35.028Z,3.42
2023-04-14T02:22:04.486Z,3.36
2023-04-14T02:24:32.383Z,3.39
2023-04-14T02:27:08.228Z,3.40
2023-04-14T02:29:38.716Z,3.38
2023-04-14T02:32:13.536Z,3.36
2023-04-14T02:34:48.935Z,3.30
2023-04-14T02:37:22.735Z,3.33
2023-04-14T02:39:56.826Z,3.34
2023-04-14T02:42:28.425Z,3.32
2023-04-14T02:45:03.490Z,3.35
2023-04-14T02:47:36.035Z,3.36
2023-04-14T02:50:06.398Z,3.37
2023-04-14T02:52:35.454Z,3.36
2023-04-14T02:55:05.099Z,3.37
2023-04-14T02:57:34.248Z,3.34
2023-04-14T03:00:03.757Z,3.37
2023-04-14T03:02:34.533Z,3.39
2023-04-14T03:05:03.977Z,3.41
2023-04-14T03:07:32.961Z,3.36
2023-04-14T03:10:02.703Z,3.46
2023-04-14T03:12:31.612Z,3.47
2023-04-14T03:15:00.638Z,3.49
2023-04-14T03:17:29.869Z,3.43
2023-04-14T03:20:00.295Z,3.49
2023-04-14T03:22:29.143Z,3.49
2023-04-14T03:24:58.935Z,3.50
2023-04-14T03:27:30.135Z,3.53
2023-04-14T03:30:04.376Z,3.51
2023-04-14T03:32:35.820Z,3.46
2023-04-14T03:35:07.051Z,3.46
2023-04-14T03:37:40.417Z,3.47
2023-04-14T03:40:11.307Z,3.49
2023-04-14T03:42:44.616Z,3.48
2023-04-14T03:45:13.146Z,3.46
2023-04-14T03:47:41.026Z,3.47
2023-04-14T03:50:12.203Z,3.46
2023-04-14T03:52:42.802Z,3.45
2023-04-14T03:55:13.584Z,3.49
2023-04-14T03:57:43.933Z,3.51
2023-04-14T04:00:15.813Z,3.52
2023-04-14T04:02:45.199Z,3.50
2023-04-14T04:05:14.902Z,3.52
2023-04-14T04:07:44.982Z,3.52
2023-04-14T04:10:14.228Z,3.56
2023-04-14T04:12:44.326Z,3.56
2023-04-14T04:15:12.652Z,3.58
2023-04-14T04:17:41.641Z,3.60
2023-04-14T04:20:13.541Z,3.64
2023-04-14T04:22:46.149Z,3.65
2023-04-14T04:25:14.526Z,3.61
2023-04-14T04:27:42.600Z,3.61
2023-04-14T04:30:11.793Z,3.67
2023-04-14T04:32:40.302Z,3.67
2023-04-14T04:35:09.477Z,3.74
2023-04-14T04:37:38.818Z,3.74
2023-04-14T04:40:09.602Z,3.67
2023-04-14T04:42:42.106Z,3.71
2023-04-14T04:45:11.186Z,3.72
2023-04-14T04:47:39.076Z,3.75
2023-04-14T04:50:07.738Z,3.82
2023-04-14T04:52:35.575Z,3.85
2023-04-14T04:55:03.390Z,3.84
2023-04-14T04:57:32.960Z,3.89
2023-04-14T05:00:01.231Z,3.87
2023-04-14T05:02:29.026Z,3.94
2023-04-14T05:04:57.487Z,3.84
2023-04-14T05:07:25.315Z,3.83
2023-04-14T05:09:53.122Z,3.81
2023-04-14T05:12:21.162Z,3.82
2023-04-14T05:14:50.404Z,3.81
2023-04-14T05:17:18.159Z,3.78
2023-04-14T05:19:45.965Z,3.73
2023-04-14T05:22:13.969Z,3.81
2023-04-14T05:24:41.700Z,3.84
2023-04-14T05:27:14.360Z,3.79
2023-04-14T05:29:42.762Z,3.87
2023-04-14T05:32:13.423Z,3.88
2023-04-14T05:34:41.351Z,3.86
2023-04-14T05:37:09.126Z,3.93
2023-04-14T05:39:37.123Z,3.98
2023-04-14T05:42:05.618Z,3.96
2023-04-14T05:44:33.377Z,4.03
2023-04-14T05:47:01.453Z,4.03
2023-04-14T05:49:31.127Z,3.99
2023-04-14T05:51:58.877Z,3.96
2023-04-14T05:54:26.672Z,4.00
2023-04-14T05:56:54.395Z,4.03
2023-04-14T05:59:22.216Z,4.11
2023-04-14T06:01:50.173Z,4.09
2023-04-14T06:04:18.138Z,4.16
2023-04-14T06:06:47.571Z,4.04
2023-04-14T06:09:15.865Z,3.99
2023-04-14T06:11:43.612Z,4.07
2023-04-14T06:14:11.416Z,3.98
2023-04-14T06:16:39.500Z,3.99
2023-04-14T06:19:07.407Z,4.09
2023-04-14T06:21:35.484Z,4.03
2023-04-14T06:24:04.812Z,4.07
2023-04-14T06:26:32.719Z,4.11
2023-04-14T06:29:00.986Z,4.12
2023-04-14T06:31:29.059Z,4.08
2023-04-14T06:33:56.837Z,4.08
2023-04-14T06:36:24.616Z,4.01
2023-04-14T06:38:52.528Z,4.06
2023-04-14T06:41:21.617Z,4.12
2023-04-14T06:43:49.386Z,4.15
2023-04-14T06:46:17.629Z,4.15
2023-04-14T06:48:45.671Z,4.11
2023-04-14T06:51:14.082Z,4.22
2023-04-14T06:53:41.882Z,4.33
2023-04-14T06:56:12.660Z,4.27
2023-04-14T06:58:41.946Z,4.29
2023-04-14T07:01:09.944Z,4.43
2023-04-14T07:03:37.860Z,4.41
2023-04-14T07:06:06.962Z,4.43
2023-04-14T07:08:35.444Z,4.39
2023-04-14T07:11:05.357Z,4.44
2023-04-14T07:13:34.369Z,4.48
2023-04-14T07:16:04.114Z,4.40
2023-04-14T07:18:32.564Z,4.49
2023-04-14T07:21:00.942Z,4.58
2023-04-14T07:23:29.624Z,4.67
2023-04-14T07:25:58.875Z,4.75
2023-04-14T07:28:28.938Z,4.92
2023-04-14T07:30:56.901Z,4.91
2023-04-14T07:33:27.129Z,5.00
2023-04-14T07:36:02.810Z,4.96
2023-04-14T07:38:33.028Z,4.90
2023-04-14T07:41:04.002Z,5.02
2023-04-14T07:43:35.206Z,5.02
2023-04-14T07:46:05.288Z,5.13
2023-04-14T07:48:36.288Z,5.21
2023-04-14T07:51:04.617Z,5.37
2023-04-14T07:53:32.577Z,5.56
2023-04-14T07:56:00.856Z,5.63
2023-04-14T07:58:30.012Z,5.59
2023-04-14T08:00:58.388Z,5.71
2023-04-14T08:03:27.279Z,5.76
2023-04-14T08:05:57.547Z,5.63
2023-04-14T08:08:26.235Z,5.84
2023-04-14T08:10:54.203Z,5.78
2023-04-14T08:13:22.032Z,5.85
2023-04-14T08:15:50.329Z,5.95
2023-04-14T08:18:18.469Z,6.00
2023-04-14T08:20:46.469Z,6.00
2023-04-14T08:23:15.743Z,6.24
2023-04-14T08:25:44.338Z,6.22
2023-04-14T08:28:12.495Z,6.41
2023-04-14T08:30:40.356Z,6.51
2023-04-14T08:33:08.297Z,6.48
2023-04-14T08:35:42.316Z,6.41
2023-04-14T08:38:11.322Z,6.47
2023-04-14T08:40:42.096Z,6.75
2023-04-14T08:43:13.019Z,6.98
2023-04-14T08:45:43.235Z,6.96
2023-04-14T08:48:13.155Z,6.81
2023-04-14T08:50:50.440Z,6.34
2023-04-14T08:53:21.702Z,6.22
2023-04-14T08:55:52.522Z,5.95
2023-04-14T08:58:21.040Z,5.70
2023-04-14T09:00:50.726Z,5.63
2023-04-14T09:03:19.823Z,5.70
2023-04-14T09:05:48.827Z,5.59
2023-04-14T09:08:16.816Z,5.56
2023-04-14T09:10:45.769Z,5.51
2023-04-14T09:13:16.036Z,5.43
2023-04-14T09:15:44.392Z,5.54
2023-04-14T09:18:12.581Z,5.51
2023-04-14T09:21:29.438Z,5.79
2023-04-14T09:23:36.473Z,5.86
2023-04-14T09:26:09.290Z,5.88
2023-04-14T09:28:38.913Z,5.96
2023-04-14T09:31:06.697Z,6.01
2023-04-14T09:33:39.302Z,5.83
2023-04-14T09:36:07.331Z,5.77
2023-04-14T09:38:37.566Z,5.69
2023-04-14T09:41:07.392Z,5.80
2023-04-14T09:43:36.790Z,5.90
2023-04-14T09:46:08.618Z,5.84
2023-04-14T09:48:37.664Z,5.77
2023-04-14T09:51:10.000Z,5.65
2023-04-14T09:53:40.269Z,5.60
2023-04-14T09:56:09.950Z,5.62
2023-04-14T09:58:39.747Z,5.60
2023-04-14T10:01:14.788Z,5.49
2023-04-14T10:03:45.532Z,5.38
2023-04-14T10:06:18.266Z,5.43
2023-04-14T10:08:48.581Z,5.27
2023-04-14T10:11:21.549Z,5.33
2023-04-14T10:13:50.640Z,5.36
2023-04-14T10:16:20.054Z,5.24
2023-04-14T10:18:48.098Z,5.15
2023-04-14T10:21:17.719Z,5.06
2023-04-14T10:23:46.322Z,5.25
2023-04-14T10:26:15.050Z,5.14
2023-04-14T10:28:45.726Z,5.22
2023-04-14T10:31:16.340Z,5.17
2023-04-14T10:33:45.464Z,5.07
2023-04-14T10:36:13.704Z,5.14
2023-04-14T10:38:43.503Z,5.08
2023-04-14T10:41:12.722Z,5.03
2023-04-14T10:43:41.497Z,4.92
2023-04-14T10:46:11.326Z,5.05
2023-04-14T10:48:41.362Z,5.07
2023-04-14T10:51:11.892Z,5.07
2023-04-14T10:53:45.868Z,5.05
2023-04-14T10:56:14.100Z,5.07
2023-04-14T10:58:41.872Z,5.12
2023-04-14T11:01:24.146Z,5.16
2023-04-14T11:03:52.316Z,4.98
2023-04-14T11:06:53.366Z,4.96
2023-04-14T11:09:33.210Z,5.13
2023-04-14T11:12:06.798Z,5.25
2023-04-14T11:14:36.338Z,5.22
2023-04-14T11:17:06.171Z,5.21
2023-04-14T11:19:34.344Z,5.29
2023-04-14T11:22:03.493Z,5.28
2023-04-14T11:24:32.451Z,5.32
2023-04-14T11:27:00.594Z,5.18
2023-04-14T11:29:28.388Z,5.18
2023-04-14T11:32:08.920Z,5.08
2023-04-14T11:34:37.207Z,4.94
2023-04-14T11:37:08.011Z,4.85
2023-04-14T11:39:36.921Z,4.63
2023-04-14T11:42:05.770Z,4.62
2023-04-14T11:44:34.435Z,4.60
2023-04-14T11:47:02.526Z,4.63
2023-04-14T11:49:37.739Z,4.70
2023-04-14T11:52:07.841Z,4.76
2023-04-14T11:54:37.179Z,4.80
2023-04-14T11:57:10.370Z,4.69
2023-04-14T11:59:43.506Z,4.78
2023-04-14T12:02:18.333Z,4.84
2023-04-14T12:04:47.236Z,4.79
2023-04-14T12:07:18.611Z,4.78
2023-04-14T12:09:48.829Z,4.72
2023-04-14T12:12:18.810Z,4.75
2023-04-14T12:14:48.466Z,4.74
2023-04-14T12:17:17.792Z,4.76
2023-04-14T12:19:47.381Z,5.03
2023-04-14T12:22:24.844Z,5.28
2023-04-14T12:24:52.761Z,5.95
2023-04-14T12:27:21.327Z,6.36
2023-04-14T12:29:50.124Z,7.01
2023-04-14T12:32:18.825Z,7.25
2023-04-14T12:34:58.524Z,7.20
2023-04-14T12:37:29.194Z,6.98
2023-04-14T12:39:59.848Z,6.84
2023-04-14T12:42:29.057Z,6.67
2023-04-14T12:44:59.002Z,6.47
2023-04-14T12:47:32.515Z,6.23
2023-04-14T12:50:02.298Z,6.16
2023-04-14T12:52:38.350Z,6.10
2023-04-14T12:55:07.813Z,5.98
2023-04-14T12:57:36.468Z,6.11
2023-04-14T13:00:05.287Z,5.88
2023-04-14T13:02:35.663Z,5.87
2023-04-14T13:05:05.023Z,5.78
2023-04-14T13:07:34.368Z,5.62
2023-04-14T13:10:02.774Z,5.55
2023-04-14T13:12:30.698Z,5.52
2023-04-14T13:14:58.449Z,5.58
2023-04-14T13:17:26.710Z,5.62
2023-04-14T13:19:54.763Z,5.71
2023-04-14T13:22:22.507Z,5.48
2023-04-14T13:24:52.172Z,5.41
2023-04-14T13:27:20.870Z,5.41
2023-04-14T13:29:48.716Z,5.39
2023-04-14T13:32:17.385Z,5.38
2023-04-14T13:34:45.266Z,5.34
2023-04-14T13:37:13.044Z,5.20
2023-04-14T13:39:40.960Z,5.14
2023-04-14T13:42:10.409Z,5.06
2023-04-14T13:44:38.137Z,5.37
2023-04-14T13:47:06.066Z,5.36
2023-04-14T13:49:33.866Z,5.43
2023-04-14T13:52:01.593Z,5.45
2023-04-14T13:54:29.401Z,5.41
2023-04-14T13:56:57.810Z,5.55
2023-04-14T13:59:27.138Z,5.47
2023-04-14T14:01:55.177Z,5.55
2023-04-14T14:04:23.042Z,5.56
2023-04-14T14:06:50.858Z,5.52
2023-04-14T14:09:18.677Z,5.49
2023-04-14T14:11:46.766Z,5.57
2023-04-14T14:14:14.941Z,5.67
2023-04-14T14:16:44.651Z,5.52
2023-04-14T14:19:16.984Z,5.75
2023-04-14T14:21:45.040Z,5.66
2023-04-14T14:24:14.105Z,5.82
2023-04-14T14:26:41.874Z,5.82
2023-04-14T14:29:09.956Z,5.80
2023-04-14T14:31:37.950Z,5.74
2023-04-14T14:34:09.554Z,5.87
2023-04-14T14:36:37.769Z,5.87
2023-04-14T14:39:05.994Z,5.81
2023-04-14T14:41:34.573Z,5.81
2023-04-14T14:44:03.486Z,5.87
2023-04-14T14:46:31.994Z,5.76
2023-04-14T14:48:59.973Z,5.61
2023-04-14T14:51:29.190Z,5.52
2023-04-14T14:54:08.716Z,5.48
2023-04-14T14:56:37.911Z,5.54
2023-04-14T14:59:05.776Z,5.49
2023-04-14T15:01:34.188Z,5.42
2023-04-14T15:04:02.590Z,5.40
2023-04-14T15:06:32.793Z,5.44
2023-04-14T15:09:01.618Z,5.38
2023-04-14T15:11:29.608Z,5.45
2023-04-14T15:13:58.529Z,5.60
2023-04-14T15:16:26.394Z,5.76
2023-04-14T15:18:54.368Z,5.89
2023-04-14T15:21:22.528Z,5.92
2023-04-14T15:23:52.059Z,5.90
2023-04-14T15:26:19.980Z,5.78
2023-04-14T15:28:48.444Z,5.72
2023-04-14T15:31:16.244Z,5.59
2023-04-14T15:33:44.543Z,5.49
2023-04-14T15:36:12.532Z,5.44
2023-04-14T15:38:40.336Z,5.39
2023-04-14T15:41:09.435Z,5.31
2023-04-14T15:43:37.193Z,5.20
2023-04-14T15:46:05.060Z,5.15
2023-04-14T15:48:32.829Z,5.13
2023-04-14T15:51:00.654Z,5.18
2023-04-14T15:53:28.496Z,5.18
2023-04-14T15:55:56.209Z,5.08
2023-04-14T15:58:25.725Z,5.09
2023-04-14T16:00:53.763Z,5.10
2023-04-14T16:03:21.860Z,5.07
2023-04-14T16:05:50.125Z,5.05
2023-04-14T16:08:19.591Z,5.05
2023-04-14T16:10:47.338Z,4.97
2023-04-14T16:13:15.093Z,4.88
2023-04-14T16:15:44.238Z,4.77
2023-04-14T16:18:12.135Z,4.76
2023-04-14T16:20:39.895Z,4.77
2023-04-14T16:23:07.734Z,4.79
2023-04-14T16:25:35.770Z,4.76
2023-04-14T16:28:03.655Z,4.77
2023-04-14T16:30:32.407Z,4.81
2023-04-14T16:33:01.586Z,4.69
2023-04-14T16:35:30.258Z,4.72
2023-04-14T16:37:58.217Z,4.72
2023-04-14T16:40:26.669Z,4.77
2023-04-14T16:42:54.534Z,4.79
2023-04-14T16:45:22.305Z,4.65
2023-04-14T16:47:50.656Z,4.54
2023-04-14T16:50:20.779Z,4.37
2023-04-14T16:52:48.765Z,4.27
2023-04-14T16:55:17.073Z,4.14
2023-04-14T16:57:44.820Z,4.17
2023-04-14T17:00:13.891Z,4.15
2023-04-14T17:02:42.150Z,4.10
2023-04-14T17:05:13.216Z,4.00
2023-04-14T17:07:42.504Z,3.60
2023-04-14T17:10:11.520Z,3.80
2023-04-14T17:12:39.596Z,3.81
2023-04-14T17:15:08.539Z,3.82
2023-04-14T17:17:36.814Z,3.87
2023-04-14T17:20:06.203Z,3.82
2023-04-14T17:22:34.225Z,3.84
2023-04-14T17:25:06.450Z,3.78
2023-04-14T17:27:34.311Z,3.74
2023-04-14T17:30:03.311Z,3.70
2023-04-14T17:32:31.284Z,3.68
2023-04-14T17:34:59.352Z,3.68
2023-04-14T17:37:28.360Z,3.70
2023-04-14T17:39:59.087Z,3.68
2023-04-14T17:42:28.355Z,3.58
2023-04-14T17:44:56.454Z,3.48
2023-04-14T17:47:24.400Z,3.48
2023-04-14T17:49:52.740Z,3.46
2023-04-14T17:52:21.288Z,3.46
2023-04-14T17:54:49.997Z,3.49
2023-04-14T17:57:18.079Z,3.43
2023-04-14T17:59:47.379Z,3.39
2023-04-14T18:02:16.346Z,3.34
2023-04-14T18:04:44.418Z,3.34
2023-04-14T18:07:12.879Z,3.32
2023-04-14T18:09:40.797Z,3.18
2023-04-14T18:12:08.593Z,3.32
2023-04-14T18:14:36.721Z,3.21
2023-04-14T18:17:06.446Z,3.20
2023-04-14T18:19:35.833Z,3.24
2023-04-14T18:22:04.210Z,3.25
2023-04-14T18:28:02.659Z,3.24
2023-04-14T18:29:52.197Z,3.24
2023-04-14T18:32:22.263Z,3.27
2023-04-14T18:34:50.081Z,3.21
2023-04-14T18:37:18.016Z,3.28
2023-04-14T18:39:45.804Z,3.30
2023-04-14T18:42:14.671Z,3.26
2023-04-14T18:44:42.815Z,3.28
2023-04-14T18:47:10.762Z,3.31
2023-04-14T18:49:40.399Z,3.26
2023-04-14T18:52:08.369Z,3.31
2023-04-14T18:54:36.797Z,3.32
2023-04-14T18:57:05.426Z,3.32
2023-04-14T18:59:34.961Z,3.32
2023-04-14T19:02:02.978Z,3.38
2023-04-14T19:04:31.510Z,3.36
2023-04-14T19:07:00.916Z,3.40
2023-04-14T19:09:28.809Z,3.42
2023-04-14T19:11:57.260Z,3.43
2023-04-14T19:14:25.072Z,3.43
2023-04-14T19:16:52.992Z,3.50
2023-04-14T19:19:20.764Z,3.47
2023-04-14T19:21:48.835Z,3.47
2023-04-14T19:24:17.943Z,3.45
2023-04-14T19:26:46.178Z,3.47
2023-04-14T19:29:14.345Z,3.47
2023-04-14T19:31:42.209Z,3.45
2023-04-14T19:34:10.157Z,3.39
2023-04-14T19:36:38.016Z,3.38
2023-04-14T19:39:06.157Z,3.29
2023-04-14T19:41:35.386Z,3.23
2023-04-14T19:44:03.987Z,3.16
2023-04-14T19:46:32.094Z,3.12
2023-04-14T19:49:00.895Z,3.04
2023-04-14T19:51:28.879Z,3.01
2023-04-14T19:53:57.156Z,2.96
2023-04-14T19:56:24.996Z,2.91
2023-04-14T19:58:54.221Z,2.86
2023-04-14T20:01:24.069Z,2.87
2023-04-14T20:04:07.803Z,2.87
2023-04-14T20:06:40.204Z,2.87
2023-04-14T20:09:08.003Z,2.81
2023-04-14T20:11:35.926Z,2.82
2023-04-14T20:14:05.030Z,2.79
2023-04-14T20:16:32.925Z,2.80
2023-04-14T20:19:01.703Z,2.78
2023-04-14T20:21:29.914Z,2.77
2023-04-14T20:23:57.786Z,2.81
2023-04-14T20:26:25.581Z,2.79
2023-04-14T20:28:53.404Z,2.85
2023-04-14T20:31:23.824Z,2.79
2023-04-14T20:33:53.054Z,2.77
2023-04-14T20:36:46.446Z,2.71
2023-04-14T20:39:14.228Z,2.71
2023-04-14T20:41:42.152Z,2.74
2023-04-14T20:44:09.982Z,2.63
2023-04-14T20:46:39.145Z,2.57
2023-04-14T20:49:07.475Z,2.60
2023-04-14T20:51:35.517Z,2.55
2023-04-14T20:54:04.109Z,2.55
2023-04-14T20:56:33.872Z,2.48
2023-04-14T20:59:01.939Z,2.45
2023-04-14T21:01:30.471Z,2.39
2023-04-14T21:03:59.863Z,2.30
2023-04-14T21:06:27.653Z,2.18
2023-04-14T21:08:55.360Z,2.22
2023-04-14T21:11:23.327Z,2.21
2023-04-14T21:15:31.453Z,2.18
2023-04-14T21:16:39.618Z,2.13
2023-04-14T21:19:09.421Z,2.20
2023-04-14T21:21:37.668Z,2.16
2023-04-14T21:24:06.065Z,2.09
2023-04-14T21:26:33.947Z,2.17
2023-04-14T21:29:01.976Z,2.29
2023-04-14T21:31:29.988Z,2.27
2023-04-14T21:33:57.918Z,2.23
2023-04-14T21:36:27.344Z,2.16
2023-04-14T21:38:55.304Z,2.14
2023-04-14T21:41:23.197Z,2.17
2023-04-14T21:43:51.518Z,2.21
2023-04-14T21:46:19.402Z,2.16
2023-04-14T21:48:47.753Z,2.13
2023-04-14T21:51:15.606Z,2.14
2023-04-14T21:53:44.672Z,2.14
2023-04-14T21:56:12.929Z,2.15
2023-04-14T21:58:40.766Z,2.09
2023-04-14T22:01:09.565Z,1.85
2023-04-14T22:03:38.978Z,2.00
2023-04-14T22:06:07.341Z,1.99
2023-04-14T22:08:35.129Z,1.91
2023-04-14T22:11:04.840Z,1.90
2023-04-14T22:13:32.628Z,1.88
2023-04-14T22:16:01.277Z,1.86
2023-04-14T22:18:30.862Z,1.73
2023-04-14T22:20:58.710Z,1.81
2023-04-14T22:23:26.463Z,1.85
2023-04-14T22:25:54.243Z,1.84
2023-04-14T22:28:23.336Z,1.79
2023-04-14T22:30:51.227Z,1.78
2023-04-14T22:33:19.107Z,1.70
2023-04-14T22:35:46.836Z,1.59
2023-04-14T22:38:14.744Z,1.51
2023-04-14T22:40:42.558Z,1.54
2023-04-14T22:43:10.818Z,1.57
2023-04-14T22:45:40.554Z,1.57
2023-04-14T22:48:10.291Z,1.37
2023-04-14T22:50:38.277Z,1.30
2023-04-14T22:53:07.033Z,1.19
2023-04-14T22:55:34.910Z,1.18
2023-04-14T22:58:02.755Z,1.14
2023-04-14T23:00:31.177Z,1.20
2023-04-14T23:03:00.468Z,1.16
2023-04-14T23:05:28.661Z,1.21
2023-04-14T23:07:56.471Z,1.39
2023-04-14T23:10:24.699Z,1.42
2023-04-14T23:12:52.621Z,1.47
2023-04-14T23:15:20.619Z,1.44
2023-04-14T23:17:48.360Z,1.42
2023-04-14T23:20:17.577Z,1.40
2023-04-14T23:22:45.439Z,1.46
2023-04-14T23:25:13.316Z,1.45
2023-04-14T23:27:41.261Z,1.45
2023-04-14T23:30:10.633Z,1.44
2023-04-14T23:32:38.602Z,1.44
2023-04-14T23:35:07.803Z,1.48
2023-04-14T23:37:37.241Z,1.48
2023-04-14T23:40:06.230Z,1.44
2023-04-14T23:42:34.655Z,1.35
2023-04-14T23:45:02.546Z,1.23
2023-04-14T23:47:30.663Z,1.26
2023-04-14T23:49:58.641Z,1.20
2023-04-14T23:52:27.083Z,1.13
2023-04-14T23:54:56.411Z,1.17
2023-04-14T23:57:24.621Z,1.03
2023-04-14T23:59:52.971Z,0.99
